createdAt,value
2023-03-17T00:01:54.987Z,99.90
2023-03-17T00:04:27.464Z,99.90
2023-03-17T00:06:54.985Z,99.90
2023-03-17T00:09:22.637Z,99.90
2023-03-17T00:11:49.976Z,99.90
2023-03-17T00:14:17.056Z,99.90
2023-03-17T00:16:53.155Z,99.90
2023-03-17T00:19:32.122Z,99.90
2023-03-17T00:22:00.828Z,99.90
2023-03-17T00:24:28.681Z,99.90
2023-03-17T00:26:55.713Z,99.90
2023-03-17T00:29:24.046Z,99.90
2023-03-17T00:31:51.349Z,99.90
2023-03-17T00:34:19.269Z,99.90
2023-03-17T00:36:48.356Z,99.90
2023-03-17T00:41:43.502Z,99.90
2023-03-17T00:44:10.292Z,99.90
2023-03-17T00:46:38.273Z,99.90
2023-03-17T00:51:44.676Z,99.90
2023-03-17T00:54:12.735Z,99.90
2023-03-17T00:56:40.306Z,99.90
2023-03-17T00:59:19.430Z,99.90
2023-03-17T01:01:47.773Z,99.90
2023-03-17T01:04:15.825Z,99.90
2023-03-17T01:06:43.198Z,99.90
2023-03-17T01:09:16.972Z,99.90
2023-03-17T01:11:44.243Z,99.90
2023-03-17T01:14:13.086Z,99.90
2023-03-17T01:16:40.692Z,99.90
2023-03-17T01:19:07.488Z,99.90
2023-03-17T01:21:34.834Z,99.90
2023-03-17T01:24:01.588Z,99.90
2023-03-17T01:26:28.498Z,99.90
2023-03-17T01:28:55.331Z,99.90
2023-03-17T01:31:23.402Z,99.90
2023-03-17T01:33:51.252Z,99.90
2023-03-17T01:36:18.580Z,99.90
2023-03-17T01:38:48.077Z,99.90
2023-03-17T01:41:14.887Z,99.90
2023-03-17T01:43:41.696Z,99.90
2023-03-17T01:46:27.543Z,99.90
2023-03-17T01:49:21.880Z,99.90
2023-03-17T01:51:57.488Z,99.90
2023-03-17T01:54:41.990Z,99.90
2023-03-17T01:57:14.583Z,99.90
2023-03-17T01:59:47.149Z,99.90
2023-03-17T02:02:19.273Z,99.90
2023-03-17T02:04:46.304Z,99.90
2023-03-17T02:07:13.904Z,99.90
2023-03-17T02:09:40.641Z,99.90
2023-03-17T02:12:09.189Z,99.90
2023-03-17T02:14:36.654Z,99.90
2023-03-17T02:17:03.355Z,99.90
2023-03-17T02:19:30.798Z,99.90
2023-03-17T02:21:59.088Z,99.90
2023-03-17T02:24:39.336Z,99.90
2023-03-17T02:27:17.527Z,99.90
2023-03-17T02:29:46.239Z,99.90
2023-03-17T02:32:15.135Z,99.90
2023-03-17T02:34:44.237Z,99.90
2023-03-17T02:37:11.095Z,99.90
2023-03-17T02:39:37.848Z,99.90
2023-03-17T02:42:05.485Z,99.90
2023-03-17T02:44:32.856Z,99.90
2023-03-17T02:46:59.612Z,99.90
2023-03-17T02:49:27.198Z,99.90
2023-03-17T02:51:54.228Z,99.90
2023-03-17T02:54:20.887Z,99.90
2023-03-17T02:56:47.555Z,99.90
2023-03-17T02:59:14.739Z,99.90
2023-03-17T03:01:42.065Z,99.90
2023-03-17T03:04:09.312Z,99.90
2023-03-17T03:06:37.368Z,99.90
2023-03-17T03:09:04.538Z,99.90
2023-03-17T03:11:31.603Z,99.90
2023-03-17T03:13:58.225Z,99.90
2023-03-17T03:16:25.089Z,99.90
2023-03-17T03:18:51.797Z,99.90
2023-03-17T03:21:18.754Z,99.90
2023-03-17T03:23:45.855Z,99.90
2023-03-17T03:26:12.928Z,99.90
2023-03-17T03:28:39.622Z,99.90
2023-03-17T03:31:06.681Z,99.90
2023-03-17T03:33:33.794Z,99.90
2023-03-17T03:36:01.608Z,99.90
2023-03-17T03:38:28.846Z,99.90
2023-03-17T03:40:55.825Z,99.90
2023-03-17T03:43:24.024Z,99.90
2023-03-17T03:45:51.994Z,99.90
2023-03-17T03:48:19.016Z,99.90
2023-03-17T03:50:45.864Z,99.90
2023-03-17T03:53:12.781Z,99.90
2023-03-17T03:55:39.847Z,99.90
2023-03-17T03:58:06.818Z,99.90
2023-03-17T04:00:34.265Z,99.90
2023-03-17T04:03:01.794Z,99.90
2023-03-17T04:05:28.550Z,99.90
2023-03-17T04:07:55.521Z,99.90
2023-03-17T04:10:23.198Z,99.90
2023-03-17T04:12:50.208Z,99.90
2023-03-17T04:15:19.918Z,99.90
2023-03-17T04:17:47.003Z,99.90
2023-03-17T04:20:15.106Z,99.90
2023-03-17T04:22:42.451Z,99.90
2023-03-17T04:25:12.253Z,99.90
2023-03-17T04:27:38.938Z,99.90
2023-03-17T04:30:06.369Z,99.90
2023-03-17T04:32:33.261Z,99.90
2023-03-17T04:35:00.018Z,99.90
2023-03-17T04:37:26.778Z,99.90
2023-03-17T04:39:55.282Z,99.90
2023-03-17T04:42:22.002Z,99.90
2023-03-17T04:44:49.199Z,99.90
2023-03-17T04:47:16.599Z,99.90
2023-03-17T04:49:43.434Z,99.90
2023-03-17T04:52:10.109Z,99.90
2023-03-17T04:54:37.056Z,99.90
2023-03-17T04:57:03.832Z,99.90
2023-03-17T04:59:30.790Z,99.90
2023-03-17T05:01:57.589Z,99.90
2023-03-17T05:04:31.668Z,99.90
2023-03-17T05:06:59.520Z,99.90
2023-03-17T05:09:28.974Z,99.90
2023-03-17T05:11:56.252Z,99.90
2023-03-17T05:14:22.991Z,99.90
2023-03-17T05:16:50.687Z,99.90
2023-03-17T05:19:18.104Z,99.90
2023-03-17T05:21:45.335Z,99.90
2023-03-17T05:24:11.999Z,99.90
2023-03-17T05:26:39.818Z,99.90
2023-03-17T05:29:07.283Z,99.90
2023-03-17T05:31:33.971Z,99.90
2023-03-17T05:34:00.734Z,99.90
2023-03-17T05:36:27.388Z,99.90
2023-03-17T05:38:54.273Z,99.90
2023-03-17T05:41:21.906Z,99.90
2023-03-17T05:43:48.679Z,99.90
2023-03-17T05:46:15.485Z,99.90
2023-03-17T05:48:42.397Z,99.90
2023-03-17T05:51:09.342Z,99.90
2023-03-17T05:53:36.286Z,99.90
2023-03-17T05:56:03.808Z,99.90
2023-03-17T05:58:30.801Z,99.90
2023-03-17T06:00:58.132Z,99.90
2023-03-17T06:03:25.421Z,99.90
2023-03-17T06:05:52.208Z,99.90
2023-03-17T06:08:19.490Z,99.90
2023-03-17T06:10:47.320Z,99.90
2023-03-17T06:13:14.117Z,99.90
2023-03-17T06:15:42.389Z,99.90
2023-03-17T06:18:09.275Z,99.90
2023-03-17T06:20:36.719Z,99.90
2023-03-17T06:23:05.541Z,99.90
2023-03-17T06:25:34.763Z,99.90
2023-03-17T06:28:03.607Z,99.90
2023-03-17T06:30:33.099Z,99.90
2023-03-17T06:33:01.041Z,99.90
2023-03-17T06:35:28.462Z,99.90
2023-03-17T06:37:55.450Z,99.90
2023-03-17T06:40:22.298Z,99.90
2023-03-17T06:42:49.279Z,99.90
2023-03-17T06:45:16.273Z,99.90
2023-03-17T06:47:43.502Z,99.90
2023-03-17T06:50:12.085Z,99.90
2023-03-17T06:52:39.561Z,99.90
2023-03-17T06:55:08.466Z,99.90
2023-03-17T06:57:35.687Z,99.90
2023-03-17T07:00:05.253Z,99.90
2023-03-17T07:02:33.595Z,99.90
2023-03-17T07:05:01.236Z,99.90
2023-03-17T07:07:28.229Z,99.90
2023-03-17T07:09:55.056Z,99.90
2023-03-17T07:12:21.762Z,99.90
2023-03-17T07:14:48.470Z,99.90
2023-03-17T07:17:15.258Z,99.90
2023-03-17T07:19:42.535Z,99.90
2023-03-17T07:22:12.975Z,99.90
2023-03-17T07:24:42.043Z,99.90
2023-03-17T07:27:09.273Z,99.90
2023-03-17T07:29:36.239Z,99.90
2023-03-17T07:32:06.056Z,99.90
2023-03-17T07:34:32.955Z,99.90
2023-03-17T07:37:00.370Z,99.90
2023-03-17T07:39:27.630Z,99.90
2023-03-17T07:41:58.011Z,99.90
2023-03-17T07:44:25.818Z,99.90
2023-03-17T07:46:52.886Z,99.90
2023-03-17T07:49:34.051Z,99.90
2023-03-17T07:52:08.568Z,99.90
2023-03-17T07:54:36.283Z,99.90
2023-03-17T07:57:04.350Z,99.90
2023-03-17T07:59:31.517Z,99.90
2023-03-17T08:01:59.618Z,99.90
2023-03-17T08:04:27.588Z,99.90
2023-03-17T08:06:54.485Z,99.90
2023-03-17T08:09:24.722Z,99.90
2023-03-17T08:11:52.013Z,99.90
2023-03-17T08:14:19.725Z,99.90
2023-03-17T08:16:47.339Z,99.90
2023-03-17T08:19:14.339Z,99.90
2023-03-17T08:21:41.328Z,99.90
2023-03-17T08:24:08.645Z,99.90
2023-03-17T08:26:36.246Z,99.90
2023-03-17T08:29:05.054Z,99.90
2023-03-17T08:31:34.013Z,99.90
2023-03-17T08:34:02.665Z,99.90
2023-03-17T08:36:29.876Z,99.90
2023-03-17T08:38:57.027Z,99.90
2023-03-17T08:41:27.279Z,99.90
2023-03-17T08:43:54.972Z,99.90
2023-03-17T08:46:28.890Z,99.90
2023-03-17T08:48:57.366Z,99.90
2023-03-17T08:51:31.106Z,99.90
2023-03-17T08:53:58.750Z,99.90
2023-03-17T08:56:26.321Z,99.90
2023-03-17T08:58:53.515Z,99.90
2023-03-17T09:01:23.194Z,99.90
2023-03-17T09:03:51.806Z,99.90
2023-03-17T09:06:19.122Z,99.90
2023-03-17T09:08:47.543Z,97.10
2023-03-17T09:11:17.181Z,94.30
2023-03-17T09:13:46.507Z,96.30
2023-03-17T09:16:18.089Z,96.90
2023-03-17T09:18:46.677Z,97.50
2023-03-17T09:21:14.978Z,95.00
2023-03-17T09:23:42.356Z,93.90
2023-03-17T09:26:10.315Z,93.60
2023-03-17T09:28:37.305Z,93.00
2023-03-17T09:31:07.859Z,94.50
2023-03-17T09:33:35.012Z,94.90
2023-03-17T09:36:02.589Z,93.60
2023-03-17T09:38:29.912Z,94.30
2023-03-17T09:42:08.392Z,95.00
2023-03-17T09:44:41.203Z,90.30
2023-03-17T09:47:29.192Z,91.00
2023-03-17T09:50:09.234Z,92.00
2023-03-17T09:52:36.345Z,90.20
2023-03-17T09:55:08.339Z,92.60
2023-03-17T09:57:40.377Z,91.50
2023-03-17T10:00:14.965Z,92.30
2023-03-17T10:02:43.205Z,92.50
2023-03-17T10:05:23.886Z,87.00
2023-03-17T10:08:31.786Z,83.80
2023-03-17T10:11:33.065Z,85.00
2023-03-17T10:14:18.177Z,87.60
2023-03-17T10:17:04.200Z,72.90
2023-03-17T10:19:52.160Z,70.80
2023-03-17T10:22:31.042Z,74.40
2023-03-17T10:25:04.043Z,70.50
2023-03-17T10:27:36.268Z,69.10
2023-03-17T10:30:03.979Z,73.60
2023-03-17T10:32:33.976Z,73.30
2023-03-17T10:35:01.316Z,75.10
2023-03-17T10:37:29.625Z,71.40
2023-03-17T10:39:57.414Z,69.00
2023-03-17T10:42:30.128Z,70.00
2023-03-17T10:45:17.777Z,70.00
2023-03-17T10:47:48.132Z,68.90
2023-03-17T10:50:20.990Z,71.50
2023-03-17T10:52:58.197Z,71.00
2023-03-17T10:55:29.690Z,70.90
2023-03-17T10:58:06.168Z,62.90
2023-03-17T11:00:36.794Z,68.00
2023-03-17T11:03:16.578Z,68.00
2023-03-17T11:06:01.105Z,61.10
2023-03-17T11:08:32.733Z,58.10
2023-03-17T11:10:59.458Z,61.00
2023-03-17T11:13:30.875Z,62.90
2023-03-17T11:16:24.816Z,65.90
2023-03-17T11:18:56.487Z,61.60
2023-03-17T11:21:46.699Z,59.70
2023-03-17T11:24:23.649Z,60.60
2023-03-17T11:26:59.070Z,61.60
2023-03-17T11:29:37.113Z,63.10
2023-03-17T11:32:28.690Z,60.20
2023-03-17T11:35:37.037Z,62.80
2023-03-17T11:38:18.776Z,60.20
2023-03-17T11:41:09.360Z,61.60
2023-03-17T11:43:54.685Z,61.10
2023-03-17T11:46:39.944Z,60.90
2023-03-17T11:49:20.459Z,62.40
2023-03-17T11:52:03.504Z,63.10
2023-03-17T11:54:36.048Z,65.00
2023-03-17T11:57:35.703Z,64.10
2023-03-17T12:00:05.352Z,69.70
2023-03-17T12:03:00.160Z,61.50
2023-03-17T12:05:28.678Z,63.70
2023-03-17T12:08:34.381Z,60.20
2023-03-17T12:11:05.948Z,61.90
2023-03-17T12:13:40.217Z,68.10
2023-03-17T12:16:14.244Z,63.90
2023-03-17T12:18:46.339Z,61.50
2023-03-17T12:21:21.167Z,63.50
2023-03-17T12:23:50.024Z,63.70
2023-03-17T12:26:38.031Z,63.20
2023-03-17T12:29:19.120Z,66.00
2023-03-17T12:31:58.596Z,62.10
2023-03-17T12:34:47.284Z,59.90
2023-03-17T12:37:15.906Z,65.30
2023-03-17T12:39:58.608Z,62.30
2023-03-17T12:42:52.533Z,58.80
2023-03-17T12:45:41.057Z,57.30
2023-03-17T12:48:30.277Z,50.50
2023-03-17T12:51:09.632Z,52.20
2023-03-17T12:53:42.499Z,54.60
2023-03-17T12:56:11.761Z,52.60
2023-03-17T12:58:43.044Z,54.70
2023-03-17T13:01:25.410Z,54.90
2023-03-17T13:04:20.249Z,51.50
2023-03-17T13:06:54.625Z,54.20
2023-03-17T13:09:30.324Z,53.90
2023-03-17T13:12:00.103Z,52.00
2023-03-17T13:14:41.878Z,54.60
2023-03-17T13:17:17.849Z,52.70
2023-03-17T13:20:21.006Z,52.80
2023-03-17T13:23:16.135Z,52.40
2023-03-17T13:25:44.073Z,54.10
2023-03-17T13:28:13.621Z,53.10
2023-03-17T13:30:40.360Z,59.80
2023-03-17T13:33:10.408Z,59.00
2023-03-17T13:35:47.615Z,59.10
2023-03-17T13:38:23.122Z,58.10
2023-03-17T13:41:15.907Z,56.90
2023-03-17T13:44:06.858Z,59.00
2023-03-17T13:46:40.931Z,60.40
2023-03-17T13:49:20.089Z,59.10
2023-03-17T13:51:59.787Z,58.70
2023-03-17T13:54:29.939Z,59.80
2023-03-17T13:56:59.976Z,68.60
2023-03-17T13:59:59.685Z,67.50
2023-03-17T14:02:31.657Z,69.50
2023-03-17T14:05:19.002Z,67.50
2023-03-17T14:07:58.212Z,63.30
2023-03-17T14:10:28.177Z,66.40
2023-03-17T14:13:13.253Z,64.40
2023-03-17T14:15:46.432Z,60.20
2023-03-17T14:18:17.708Z,63.00
2023-03-17T14:20:59.193Z,63.00
2023-03-17T14:23:26.562Z,65.60
2023-03-17T14:25:57.122Z,67.70
2023-03-17T14:28:28.575Z,66.40
2023-03-17T14:30:59.771Z,67.50
2023-03-17T14:33:29.690Z,68.10
2023-03-17T14:35:59.359Z,73.70
2023-03-17T14:38:35.276Z,71.70
2023-03-17T14:41:18.599Z,70.00
2023-03-17T14:43:46.726Z,70.00
2023-03-17T14:46:32.762Z,71.10
2023-03-17T14:49:27.513Z,72.80
2023-03-17T14:51:57.796Z,71.60
2023-03-17T14:54:33.956Z,69.80
2023-03-17T14:57:13.182Z,62.20
2023-03-17T15:00:29.449Z,64.00
2023-03-17T15:02:58.077Z,76.50
2023-03-17T15:05:43.140Z,79.50
2023-03-17T15:08:49.070Z,79.20
2023-03-17T15:11:28.843Z,78.70
2023-03-17T15:14:06.972Z,79.80
2023-03-17T15:16:38.377Z,78.80
2023-03-17T15:19:21.303Z,74.40
2023-03-17T15:21:48.773Z,77.40
2023-03-17T15:24:36.367Z,75.80
2023-03-17T15:27:23.950Z,78.60
2023-03-17T15:29:50.919Z,79.70
2023-03-17T15:32:20.566Z,74.30
2023-03-17T15:34:48.453Z,77.50
2023-03-17T15:37:23.484Z,81.60
2023-03-17T15:39:51.484Z,78.60
2023-03-17T15:42:22.220Z,81.40
2023-03-17T15:44:49.056Z,82.80
2023-03-17T15:47:18.192Z,83.10
2023-03-17T15:49:46.362Z,83.30
2023-03-17T15:52:26.611Z,84.70
2023-03-17T15:54:55.874Z,84.10
2023-03-17T15:57:22.841Z,85.60
2023-03-17T15:59:49.913Z,82.40
2023-03-17T16:02:25.479Z,87.10
2023-03-17T16:04:52.804Z,87.70
2023-03-17T16:07:21.320Z,88.00
2023-03-17T16:09:48.333Z,88.30
2023-03-17T16:12:16.041Z,90.70
2023-03-17T16:14:43.068Z,87.10
2023-03-17T16:17:26.939Z,89.80
2023-03-17T16:19:54.247Z,91.80
2023-03-17T16:22:41.952Z,91.60
2023-03-17T16:25:25.428Z,90.90
2023-03-17T16:27:54.370Z,92.10
2023-03-17T16:30:26.805Z,91.20
2023-03-17T16:32:54.810Z,92.50
2023-03-17T16:35:24.299Z,90.60
2023-03-17T16:37:52.737Z,92.80
2023-03-17T16:40:25.837Z,91.00
2023-03-17T16:42:53.163Z,92.40
2023-03-17T16:45:29.411Z,92.80
2023-03-17T16:47:57.184Z,92.60
2023-03-17T16:50:26.723Z,91.50
2023-03-17T16:52:53.862Z,93.40
2023-03-17T16:55:22.249Z,93.90
2023-03-17T16:57:51.834Z,93.10
2023-03-17T17:00:21.662Z,94.70
2023-03-17T17:02:49.848Z,95.00
2023-03-17T17:05:20.289Z,94.70
2023-03-17T17:07:48.056Z,97.00
2023-03-17T17:10:18.604Z,97.60
2023-03-17T17:12:45.753Z,97.90
2023-03-17T17:15:14.348Z,98.90
2023-03-17T17:17:44.025Z,98.40
2023-03-17T17:20:23.142Z,99.80
2023-03-17T17:22:50.498Z,99.90
2023-03-17T17:25:17.852Z,99.90
2023-03-17T17:27:46.190Z,99.90
2023-03-17T17:30:16.868Z,99.90
2023-03-17T17:32:44.134Z,99.90
2023-03-17T17:35:11.777Z,99.90
2023-03-17T17:37:38.855Z,99.00
2023-03-17T17:40:08.484Z,99.90
2023-03-17T17:42:36.016Z,99.90
2023-03-17T17:45:03.166Z,99.90
2023-03-17T17:47:32.708Z,99.90
2023-03-17T17:50:00.049Z,99.90
2023-03-17T17:52:26.814Z,99.90
2023-03-17T17:54:53.507Z,99.90
2023-03-17T17:57:20.512Z,99.90
2023-03-17T17:59:47.237Z,99.90
2023-03-17T18:02:14.025Z,99.90
2023-03-17T18:04:41.409Z,99.90
2023-03-17T18:07:08.617Z,99.90
2023-03-17T18:09:35.625Z,99.90
2023-03-17T18:12:02.760Z,99.90
2023-03-17T18:14:29.492Z,99.90
2023-03-17T18:16:56.565Z,99.90
2023-03-17T18:19:23.593Z,99.90
2023-03-17T18:21:50.277Z,99.90
2023-03-17T18:24:17.395Z,99.90
2023-03-17T18:26:44.144Z,99.90
2023-03-17T18:29:12.106Z,99.90
2023-03-17T18:31:46.090Z,99.90
2023-03-17T18:34:20.094Z,99.90
2023-03-17T18:36:47.951Z,99.90
2023-03-17T18:39:16.151Z,99.90
2023-03-17T18:41:43.912Z,99.90
2023-03-17T18:44:11.309Z,99.90
2023-03-17T18:46:38.749Z,99.90
2023-03-17T18:49:07.293Z,99.90
2023-03-17T18:51:34.208Z,99.90
2023-03-17T18:54:01.526Z,99.90
2023-03-17T18:56:29.604Z,99.90
2023-03-17T18:58:56.818Z,99.90
2023-03-17T19:01:23.889Z,99.90
2023-03-17T19:03:51.376Z,99.90
2023-03-17T19:06:20.248Z,99.90
2023-03-17T19:08:47.889Z,99.90
2023-03-17T19:11:16.596Z,99.90
2023-03-17T19:13:44.743Z,99.90
2023-03-17T19:16:12.170Z,99.90
2023-03-17T19:18:41.886Z,99.90
2023-03-17T19:21:10.117Z,99.90
2023-03-17T19:23:38.250Z,99.90
2023-03-17T19:26:05.935Z,99.90
2023-03-17T19:28:33.409Z,99.90
2023-03-17T19:31:01.118Z,99.90
2023-03-17T19:33:28.917Z,99.90
2023-03-17T19:35:58.640Z,99.90
2023-03-17T19:38:27.435Z,99.90
2023-03-17T19:40:54.437Z,99.90
2023-03-17T19:43:39.103Z,99.90
2023-03-17T19:46:07.880Z,99.90
2023-03-17T19:48:36.036Z,99.90
2023-03-17T19:51:03.491Z,99.90
2023-03-17T19:53:30.560Z,99.90
2023-03-17T19:55:57.558Z,99.90
2023-03-17T19:58:24.327Z,99.90
2023-03-17T20:00:51.491Z,99.90
2023-03-17T20:03:18.586Z,99.90
2023-03-17T20:05:46.444Z,99.90
2023-03-17T20:08:14.798Z,99.90
2023-03-17T20:10:41.987Z,99.90
2023-03-17T20:13:09.134Z,99.90
2023-03-17T20:15:36.768Z,99.90
2023-03-17T20:18:04.045Z,99.90
2023-03-17T20:20:31.565Z,99.90
2023-03-17T20:22:58.541Z,99.90
2023-03-17T20:25:25.583Z,99.90
2023-03-17T20:27:53.428Z,99.90
2023-03-17T20:30:20.629Z,99.90
2023-03-17T20:32:48.352Z,99.90
2023-03-17T20:35:15.485Z,99.90
2023-03-17T20:37:42.630Z,99.90
2023-03-17T20:40:10.815Z,99.90
2023-03-17T20:42:37.971Z,99.90
2023-03-17T20:45:05.954Z,99.90
2023-03-17T20:47:32.867Z,99.90
2023-03-17T20:50:00.639Z,99.90
2023-03-17T20:52:29.949Z,99.90
2023-03-17T20:54:59.418Z,99.90
2023-03-17T20:57:26.440Z,99.90
2023-03-17T20:59:53.402Z,99.90
2023-03-17T21:02:20.800Z,99.90
2023-03-17T21:04:49.035Z,99.90
2023-03-17T21:07:18.412Z,99.90
2023-03-17T21:09:46.830Z,99.90
2023-03-17T21:12:24.252Z,99.90
2023-03-17T21:14:52.402Z,99.90
2023-03-17T21:17:19.755Z,99.90
2023-03-17T21:19:47.420Z,99.90
2023-03-17T21:22:14.432Z,99.90
2023-03-17T21:24:41.422Z,99.90
2023-03-17T21:27:11.211Z,99.90
2023-03-17T21:29:39.801Z,99.90
2023-03-17T21:32:08.545Z,99.90
2023-03-17T21:34:36.916Z,99.90
2023-03-17T21:37:04.226Z,99.90
2023-03-17T21:39:32.737Z,99.90
2023-03-17T21:42:01.391Z,99.90
2023-03-17T21:44:28.553Z,99.90
2023-03-17T21:46:56.542Z,99.90
2023-03-17T21:49:24.831Z,99.90
2023-03-17T21:51:51.953Z,99.90
2023-03-17T21:54:19.646Z,99.90
2023-03-17T21:56:47.544Z,99.90
2023-03-17T21:59:15.485Z,99.90
2023-03-17T22:01:44.162Z,99.90
2023-03-17T22:04:12.404Z,99.90
2023-03-17T22:06:40.151Z,99.90
2023-03-17T22:09:07.079Z,99.90
2023-03-17T22:11:34.082Z,99.90
2023-03-17T22:14:01.824Z,99.90
2023-03-17T22:16:30.744Z,99.90
2023-03-17T22:18:57.749Z,99.90
2023-03-17T22:21:25.603Z,99.90
2023-03-17T22:23:52.390Z,99.90
2023-03-17T22:26:21.354Z,99.90
2023-03-17T22:28:49.658Z,99.90
2023-03-17T22:31:23.074Z,99.90
2023-03-17T22:33:52.522Z,99.90
2023-03-17T22:36:19.505Z,99.90
2023-03-17T22:38:46.806Z,99.90
2023-03-17T22:41:16.570Z,99.90
2023-03-17T22:43:44.428Z,99.90
2023-03-17T22:46:14.256Z,99.90
2023-03-17T22:48:41.215Z,99.90
2023-03-17T22:51:10.908Z,99.90
2023-03-17T22:53:38.846Z,99.90
2023-03-17T22:56:06.547Z,99.90
2023-03-17T22:58:33.888Z,99.90
2023-03-17T23:01:01.084Z,99.90
2023-03-17T23:03:28.555Z,99.90
2023-03-17T23:05:58.349Z,99.90
2023-03-17T23:08:26.721Z,99.90
2023-03-17T23:10:53.973Z,99.90
2023-03-17T23:13:20.920Z,99.90
2023-03-17T23:15:48.266Z,99.90
2023-03-17T23:18:15.393Z,99.90
2023-03-17T23:20:42.753Z,99.90
2023-03-17T23:23:10.711Z,99.90
2023-03-17T23:25:38.620Z,99.90
2023-03-17T23:28:07.551Z,99.90
2023-03-17T23:30:35.872Z,99.90
2023-03-17T23:33:04.635Z,99.90
2023-03-17T23:35:32.110Z,99.90
2023-03-17T23:37:59.363Z,99.90
2023-03-17T23:40:26.663Z,99.90
2023-03-17T23:42:55.559Z,99.90
2023-03-17T23:45:23.509Z,99.90
2023-03-17T23:47:52.408Z,99.90
2023-03-17T23:50:20.924Z,99.90
2023-03-17T23:52:48.137Z,99.90
2023-03-17T23:55:16.646Z,99.90
2023-03-17T23:57:44.191Z,99.90
